createdAt,value
2018-01-02T04:36:52.007Z,6.42
2018-01-02T04:39:21.326Z,6.37
2018-01-02T04:41:50.534Z,6.38
2018-01-02T04:44:19.706Z,6.36
2018-01-02T04:46:48.904Z,6.31
2018-01-02T04:49:18.098Z,6.32
2018-01-02T04:51:47.481Z,6.31
2018-01-02T04:54:17.418Z,6.33
2018-01-02T04:56:46.639Z,6.34
2018-01-02T04:59:16.607Z,6.40
2018-01-02T05:01:45.800Z,6.43
2018-01-02T05:04:15.026Z,6.47
2018-01-02T05:06:44.203Z,6.49
2018-01-02T05:09:13.385Z,6.47
2018-01-02T05:11:42.646Z,6.48
2018-01-02T05:14:11.859Z,6.54
2018-01-02T05:16:41.095Z,6.51
2018-01-02T05:19:10.290Z,6.53
2018-01-02T05:21:39.486Z,6.51
2018-01-02T05:24:08.688Z,6.46
2018-01-02T05:26:37.893Z,6.44
2018-01-02T05:29:07.131Z,6.47
2018-01-02T05:31:36.320Z,6.46
2018-01-02T05:34:05.526Z,6.46
2018-01-02T05:36:34.753Z,6.43
2018-01-02T05:39:04.757Z,6.43
2018-01-02T05:41:33.986Z,6.40
2018-01-02T05:44:03.199Z,6.32
2018-01-02T05:46:32.406Z,6.38
2018-01-02T05:49:01.594Z,6.41
2018-01-02T05:51:30.779Z,6.44
2018-01-02T05:53:59.979Z,6.44
2018-01-02T05:56:29.213Z,6.45
2018-01-02T05:58:59.938Z,6.46
2018-01-02T06:01:29.194Z,6.49
2018-01-02T06:03:58.411Z,6.46
2018-01-02T06:06:27.718Z,6.49
2018-01-02T06:08:57.044Z,6.49
2018-01-02T06:11:26.238Z,6.49
2018-01-02T06:13:55.505Z,6.57
2018-01-02T06:16:24.686Z,6.55
2018-01-02T06:18:53.967Z,6.59
2018-01-02T06:21:23.919Z,6.65
2018-01-02T06:23:53.200Z,6.68
2018-01-02T06:26:22.410Z,6.65
2018-01-02T06:28:51.598Z,6.68
2018-01-02T06:31:20.804Z,6.66
2018-01-02T06:33:49.983Z,6.61
2018-01-02T06:36:19.231Z,6.65
2018-01-02T06:38:48.446Z,6.62
2018-01-02T06:41:17.879Z,6.63
2018-01-02T06:43:47.071Z,6.64
2018-01-02T06:46:17.050Z,6.64
2018-01-02T06:48:46.240Z,6.64
2018-01-02T06:51:15.437Z,6.69
2018-01-02T06:53:44.678Z,6.66
2018-01-02T06:56:13.974Z,6.63
2018-01-02T06:58:43.198Z,6.65
2018-01-02T07:01:12.398Z,6.66
2018-01-02T07:03:41.690Z,6.67
2018-01-02T07:06:10.899Z,6.72
2018-01-02T07:08:40.107Z,6.75
2018-01-02T07:11:09.302Z,6.75
2018-01-02T07:13:38.489Z,6.78
2018-01-02T07:16:07.698Z,6.76
2018-01-02T07:18:36.979Z,6.72
2018-01-02T07:21:06.195Z,6.74
2018-01-02T07:23:35.482Z,6.76
2018-01-02T07:26:04.661Z,6.77
2018-01-02T07:28:33.866Z,6.74
2018-01-02T07:31:03.058Z,6.78
2018-01-02T07:33:32.280Z,6.73
2018-01-02T07:36:01.456Z,6.75
2018-01-02T07:38:30.653Z,6.74
2018-01-02T07:40:59.932Z,6.70
2018-01-02T07:43:29.174Z,6.73
2018-01-02T07:45:58.357Z,6.76
2018-01-02T07:48:27.554Z,6.77
2018-01-02T07:50:56.809Z,6.77
2018-01-02T07:53:25.975Z,6.78
2018-01-02T07:55:55.177Z,6.81
2018-01-02T07:58:24.393Z,6.76
2018-01-02T08:00:53.598Z,6.78
2018-01-02T08:03:22.848Z,6.80
2018-01-02T08:05:52.062Z,6.81
2018-01-02T08:08:21.276Z,6.81
2018-01-02T08:10:50.491Z,6.86
2018-01-02T08:13:20.474Z,6.87
2018-01-02T08:15:49.687Z,6.86
2018-01-02T08:18:18.888Z,6.90
2018-01-02T08:20:48.070Z,6.93
2018-01-02T08:23:17.270Z,6.98
2018-01-02T08:25:46.497Z,6.98
2018-01-02T08:28:16.459Z,7.00
2018-01-02T08:30:45.664Z,6.98
2018-01-02T08:33:14.889Z,6.96
2018-01-02T08:35:44.106Z,6.94
2018-01-02T08:38:13.489Z,6.99
2018-01-02T08:40:42.687Z,6.99
2018-01-02T08:43:11.907Z,6.97
2018-01-02T08:45:41.961Z,6.93
2018-01-02T08:48:11.247Z,6.89
2018-01-02T08:50:40.451Z,6.88
2018-01-02T08:53:09.660Z,6.86
2018-01-02T08:55:38.862Z,6.87
2018-01-02T08:58:08.090Z,6.84
2018-01-02T09:00:38.075Z,6.86
2018-01-02T09:03:07.335Z,6.89
2018-01-02T09:05:36.527Z,6.91
2018-01-02T09:08:05.895Z,6.93
2018-01-02T09:10:35.100Z,6.92
2018-01-02T09:13:20.463Z,6.93
2018-01-02T09:15:49.655Z,6.85
2018-01-02T09:18:18.861Z,6.85
2018-01-02T09:20:48.061Z,6.87
2018-01-02T09:23:17.254Z,6.86
2018-01-02T09:25:46.442Z,6.81
2018-01-02T09:28:15.662Z,6.79
2018-01-02T09:30:44.837Z,6.78
2018-01-02T09:33:14.034Z,6.77
2018-01-02T09:35:43.226Z,6.75
2018-01-02T09:38:12.422Z,6.72
2018-01-02T09:40:41.625Z,6.70
2018-01-02T09:43:10.846Z,6.73
2018-01-02T09:45:40.226Z,6.71
2018-01-02T09:48:09.464Z,6.71
2018-01-02T09:50:39.491Z,6.67
2018-01-02T09:53:08.663Z,6.65
2018-01-02T09:55:37.859Z,6.64
2018-01-02T09:58:07.982Z,6.64
2018-01-02T10:00:38.031Z,6.68
2018-01-02T10:03:07.220Z,6.69
2018-01-02T10:05:36.424Z,6.71
2018-01-02T10:08:05.760Z,6.78
2018-01-02T10:10:34.949Z,6.76
2018-01-02T10:13:04.192Z,6.78
2018-01-02T10:15:33.472Z,6.79
2018-01-02T10:18:02.850Z,6.82
2018-01-02T10:20:32.059Z,6.84
2018-01-02T10:23:01.273Z,6.80
2018-01-02T10:25:30.496Z,6.81
2018-01-02T10:28:00.472Z,6.86
2018-01-02T10:30:29.698Z,6.90
2018-01-02T10:32:59.077Z,6.93
2018-01-02T10:35:28.325Z,6.95
2018-01-02T10:37:57.540Z,7.00
2018-01-02T10:40:26.834Z,7.00
2018-01-02T10:42:56.023Z,7.01
2018-01-02T10:45:25.253Z,7.04
2018-01-02T10:47:54.446Z,7.04
2018-01-02T10:50:23.686Z,7.05
2018-01-02T10:52:53.715Z,7.09
2018-01-02T10:55:24.467Z,7.06
2018-01-02T10:57:53.654Z,7.04
2018-01-02T11:00:22.856Z,7.01
2018-01-02T11:02:52.027Z,7.08
2018-01-02T11:05:21.997Z,7.05
2018-01-02T11:07:51.207Z,7.09
2018-01-02T11:10:20.434Z,7.19
2018-01-02T11:12:54.174Z,7.22
2018-01-02T11:15:23.391Z,7.23
2018-01-02T11:17:52.596Z,7.24
2018-01-02T11:20:21.820Z,7.26
2018-01-02T11:22:51.043Z,7.27
2018-01-02T11:25:21.021Z,7.28
2018-01-02T11:27:50.250Z,7.27
2018-01-02T11:30:20.214Z,7.29
2018-01-02T11:32:49.457Z,7.30
2018-01-02T11:35:19.448Z,7.36
2018-01-02T11:37:48.652Z,7.33
2018-01-02T11:40:17.903Z,7.31
2018-01-02T11:42:47.850Z,7.32
2018-01-02T11:45:17.065Z,7.30
2018-01-02T11:47:46.274Z,7.29
2018-01-02T11:50:15.506Z,7.34
2018-01-02T11:52:44.700Z,7.34
2018-01-02T11:55:13.893Z,7.37
2018-01-02T11:57:43.083Z,7.42
2018-01-02T12:00:12.283Z,7.42
2018-01-02T12:02:41.469Z,7.42
2018-01-02T12:05:10.703Z,7.39
2018-01-02T12:07:39.898Z,7.40
2018-01-02T12:10:09.251Z,7.47
2018-01-02T12:12:38.443Z,7.49
2018-01-02T12:15:09.286Z,7.47
2018-01-02T12:17:39.420Z,7.50
2018-01-02T12:20:09.430Z,7.59
2018-01-02T12:22:39.434Z,7.58
2018-01-02T12:25:08.654Z,7.58
2018-01-02T12:27:37.851Z,7.57
2018-01-02T12:30:07.897Z,7.56
2018-01-02T12:32:37.070Z,7.54
2018-01-02T12:35:06.326Z,7.54
2018-01-02T12:37:35.544Z,7.52
2018-01-02T12:40:04.919Z,7.52
2018-01-02T12:42:34.202Z,7.53
2018-01-02T12:45:03.502Z,7.58
2018-01-02T12:47:32.743Z,7.53
2018-01-02T12:50:02.718Z,7.46
2018-01-02T12:52:31.942Z,7.47
2018-01-02T12:55:01.274Z,7.46
2018-01-02T12:57:30.478Z,7.39
2018-01-02T12:59:59.680Z,7.37
2018-01-02T13:02:28.993Z,7.37
2018-01-02T13:04:58.384Z,7.38
2018-01-02T13:07:27.617Z,7.39
2018-01-02T13:09:56.847Z,7.41
2018-01-02T13:12:26.836Z,7.46
2018-01-02T13:14:56.046Z,7.50
2018-01-02T13:17:25.269Z,7.45
2018-01-02T13:19:55.335Z,7.43
2018-01-02T13:22:24.563Z,7.46
2018-01-02T13:24:53.793Z,7.46
2018-01-02T13:27:22.993Z,7.46
2018-01-02T13:29:52.220Z,7.47
2018-01-02T13:32:21.468Z,7.43
2018-01-02T13:34:50.701Z,7.35
2018-01-02T13:37:19.916Z,7.30
2018-01-02T13:39:49.129Z,7.36
2018-01-02T13:42:18.355Z,7.42
2018-01-02T13:44:48.358Z,7.40
2018-01-02T13:47:17.588Z,7.34
2018-01-02T13:49:46.781Z,7.35
2018-01-02T13:52:15.987Z,7.32
2018-01-02T13:54:45.958Z,7.39
2018-01-02T13:57:15.144Z,7.37
2018-01-02T13:59:44.468Z,7.30
2018-01-02T14:02:13.730Z,7.32
2018-01-02T14:04:43.215Z,7.32
2018-01-02T14:07:12.601Z,7.27
2018-01-02T14:09:41.957Z,7.29
2018-01-02T14:12:11.166Z,7.32
2018-01-02T14:14:40.422Z,7.34
2018-01-02T14:17:09.720Z,7.29
2018-01-02T14:19:38.919Z,7.29
2018-01-02T14:22:08.224Z,7.29
2018-01-02T14:24:37.424Z,7.25
2018-01-02T14:27:06.630Z,7.21
2018-01-02T14:29:35.813Z,7.18
2018-01-02T14:32:05.017Z,7.18
2018-01-02T14:34:35.068Z,7.21
2018-01-02T14:37:04.247Z,7.17
2018-01-02T14:39:33.505Z,7.19
2018-01-02T14:42:03.551Z,7.20
2018-01-02T14:44:32.741Z,7.27
2018-01-02T14:47:01.934Z,7.26
2018-01-02T14:49:31.155Z,7.24
2018-01-02T14:52:01.953Z,7.26
2018-01-02T14:54:31.157Z,7.25
2018-01-02T14:57:00.374Z,7.26
2018-01-02T14:59:29.597Z,7.24
2018-01-02T15:01:58.806Z,7.27
2018-01-02T15:04:28.770Z,7.18
2018-01-02T15:06:58.210Z,7.10
2018-01-02T15:09:27.434Z,7.10
2018-01-02T15:11:57.438Z,7.05
2018-01-02T15:14:27.410Z,7.01
2018-01-02T15:16:56.644Z,6.98
2018-01-02T15:19:26.638Z,6.90
2018-01-02T15:21:55.866Z,6.88
2018-01-02T15:24:25.834Z,6.85
2018-01-02T15:26:55.113Z,6.78
2018-01-02T15:29:24.322Z,6.76
2018-01-02T15:31:53.713Z,6.73
2018-01-02T15:34:22.924Z,6.71
2018-01-02T15:36:52.139Z,6.65
2018-01-02T15:39:21.353Z,6.64
2018-01-02T15:41:50.558Z,6.65
2018-01-02T15:44:19.797Z,6.69
2018-01-02T15:46:49.009Z,6.66
2018-01-02T15:49:18.211Z,6.69
2018-01-02T15:51:47.443Z,6.66
2018-01-02T15:54:17.446Z,6.66
2018-01-02T15:56:48.234Z,6.73
2018-01-02T15:59:17.475Z,6.74
2018-01-02T16:01:46.757Z,6.71
2018-01-02T16:04:16.049Z,6.70
2018-01-02T16:06:45.249Z,6.74
2018-01-02T16:09:14.617Z,6.75
2018-01-02T16:11:44.663Z,6.73
2018-01-02T16:14:13.945Z,6.67
2018-01-02T16:16:44.455Z,6.66
2018-01-02T16:19:14.431Z,6.65
2018-01-02T16:21:43.663Z,6.64
2018-01-02T16:24:13.650Z,6.60
2018-01-02T16:26:42.882Z,6.59
2018-01-02T16:29:12.856Z,6.56
2018-01-02T16:31:42.272Z,6.53
2018-01-02T16:34:11.498Z,6.55
2018-01-02T16:36:40.851Z,6.57
2018-01-02T16:39:10.088Z,6.57
2018-01-02T16:41:40.091Z,6.55
2018-01-02T16:44:09.308Z,6.58
2018-01-02T16:46:38.558Z,6.54
2018-01-02T16:49:07.848Z,6.49
2018-01-02T16:51:37.072Z,6.52
2018-01-02T16:54:06.483Z,6.51
2018-01-02T16:56:35.693Z,6.46
2018-01-02T16:59:04.912Z,6.46
2018-01-02T17:01:34.158Z,6.42
2018-01-02T17:04:03.419Z,6.48
2018-01-02T17:06:32.650Z,6.44
2018-01-02T17:09:02.012Z,6.46
2018-01-02T17:11:31.248Z,6.48
2018-01-02T17:14:01.478Z,6.50
2018-01-02T17:16:30.693Z,6.50
2018-01-02T17:18:59.920Z,6.53
2018-01-02T17:21:29.145Z,6.51
2018-01-02T17:23:58.471Z,6.54
2018-01-02T17:26:27.820Z,6.53
2018-01-02T17:28:57.780Z,6.54
2018-01-02T17:31:26.994Z,6.56
2018-01-02T17:33:56.203Z,6.64
2018-01-02T17:36:25.424Z,6.69
2018-01-02T17:38:54.619Z,6.68
2018-01-02T17:41:24.648Z,6.71
2018-01-02T17:43:53.861Z,6.72
2018-01-02T17:46:23.105Z,6.74
2018-01-02T17:48:52.300Z,6.73
2018-01-02T17:51:21.578Z,6.74
2018-01-02T17:53:50.879Z,6.75
2018-01-02T17:56:20.321Z,6.74
2018-01-02T17:58:49.549Z,6.77
2018-01-02T18:01:18.760Z,6.72
2018-01-02T18:03:47.957Z,6.77
2018-01-02T18:06:17.158Z,6.77
2018-01-02T18:08:46.379Z,6.73
2018-01-02T18:11:15.573Z,6.74
2018-01-02T18:13:44.842Z,6.77
2018-01-02T18:16:14.759Z,6.77
2018-01-02T18:18:44.049Z,6.77
2018-01-02T18:21:13.281Z,6.78
2018-01-02T18:23:42.515Z,6.76
2018-01-02T18:26:12.520Z,6.78
2018-01-02T18:28:41.787Z,6.78
2018-01-02T18:31:11.086Z,6.81
2018-01-02T18:33:40.618Z,6.83
2018-01-02T18:36:11.373Z,6.88
2018-01-02T18:38:41.388Z,6.90
2018-01-02T18:41:10.693Z,6.93
2018-01-02T18:43:40.817Z,6.96
2018-01-02T18:46:10.089Z,6.99
2018-01-02T18:48:40.264Z,6.97
2018-01-02T18:51:09.661Z,6.98
2018-01-02T18:53:39.642Z,6.93
2018-01-02T18:56:09.368Z,6.93
2018-01-02T18:58:39.102Z,6.94
2018-01-02T19:01:08.785Z,6.96
2018-01-02T19:03:38.301Z,6.96
2018-01-02T19:06:08.222Z,6.99
2018-01-02T19:08:37.874Z,7.00
2018-01-02T19:11:07.907Z,7.01
2018-01-02T19:13:38.163Z,7.05
2018-01-02T19:16:07.894Z,7.07
2018-01-02T19:18:38.365Z,7.13
2018-01-02T19:21:08.433Z,7.16
2018-01-02T19:23:37.951Z,7.16
2018-01-02T19:26:07.357Z,7.13
2018-01-02T19:28:36.977Z,7.11
2018-01-02T19:31:06.406Z,7.14
2018-01-02T19:33:36.558Z,7.13
2018-01-02T19:36:06.126Z,7.16
2018-01-02T19:38:36.024Z,7.18
2018-01-02T19:41:05.290Z,7.18
2018-01-02T19:43:34.958Z,7.20
2018-01-02T19:46:04.357Z,7.19
2018-01-02T19:48:34.144Z,7.23
2018-01-02T19:51:04.415Z,7.22
2018-01-02T19:53:34.088Z,7.15
2018-01-02T19:56:04.378Z,7.11
2018-01-02T19:58:34.640Z,7.03
2018-01-02T20:01:04.895Z,7.01
2018-01-02T20:03:34.420Z,7.02
2018-01-02T20:06:03.939Z,6.98
2018-01-02T20:08:34.198Z,6.93
2018-01-02T20:11:04.434Z,6.89
2018-01-02T20:13:34.046Z,6.92
2018-01-02T20:16:03.759Z,6.89
2018-01-02T20:18:39.098Z,6.89
2018-01-02T20:21:09.770Z,6.83
2018-01-02T20:23:39.483Z,6.79
2018-01-02T20:26:09.784Z,6.77
2018-01-02T20:28:39.480Z,6.79
2018-01-02T20:31:09.921Z,6.78
2018-01-02T20:33:41.247Z,6.77
2018-01-02T20:36:11.068Z,6.76
2018-01-02T20:38:40.999Z,6.75
2018-01-02T20:41:11.345Z,6.71
2018-01-02T20:43:41.133Z,6.70
2018-01-02T20:46:10.920Z,6.69
2018-01-02T20:48:40.649Z,6.71
2018-01-02T20:51:10.994Z,6.73
2018-01-02T20:53:41.569Z,6.72
2018-01-02T20:56:11.467Z,6.71
2018-01-02T20:58:42.220Z,6.71
2018-01-02T21:01:12.357Z,6.70
2018-01-02T21:03:42.150Z,6.73
2018-01-02T21:06:11.985Z,6.76
2018-01-02T21:08:41.659Z,6.78
2018-01-02T21:11:11.245Z,6.81
2018-01-02T21:13:40.776Z,6.82
2018-01-02T21:16:10.327Z,6.87
2018-01-02T21:18:39.966Z,6.93
2018-01-02T21:21:09.908Z,6.96
2018-01-02T21:23:39.388Z,6.97
2018-01-02T21:26:09.101Z,7.01
2018-01-02T21:28:39.333Z,7.05
2018-01-02T21:31:09.609Z,7.08
2018-01-02T21:33:39.163Z,7.09
2018-01-02T21:36:08.839Z,7.10
2018-01-02T21:38:38.340Z,7.12
2018-01-02T21:41:07.929Z,7.09
2018-01-02T21:43:37.369Z,7.10
2018-01-02T21:46:06.848Z,7.13
2018-01-02T21:48:36.502Z,7.15
2018-01-02T21:51:06.467Z,7.16
2018-01-02T21:53:36.926Z,7.13
2018-01-02T21:56:06.569Z,7.18
2018-01-02T21:58:37.097Z,7.23
2018-01-02T22:01:07.030Z,7.26
2018-01-02T22:03:37.263Z,7.31
2018-01-02T22:06:07.269Z,7.34
2018-01-02T22:08:36.766Z,7.36
2018-01-02T22:11:06.516Z,7.39
2018-01-02T22:13:36.267Z,7.42
2018-01-02T22:16:05.977Z,7.46
2018-01-02T22:18:35.636Z,7.51
2018-01-02T22:21:05.055Z,7.55
2018-01-02T22:23:34.929Z,7.58
2018-01-02T22:26:04.379Z,7.61
2018-01-02T22:28:34.771Z,7.65
2018-01-02T22:31:04.082Z,7.67
2018-01-02T22:33:34.142Z,7.66
2018-01-02T22:36:03.570Z,7.67
2018-01-02T22:38:32.769Z,7.70
2018-01-02T22:41:01.951Z,7.70
2018-01-02T22:43:31.169Z,7.72
2018-01-02T22:46:00.459Z,7.74
